Impacts TAF Board
For situational awareness. Not to be used for flight planning purposes.
IDs:

KMIA - Miami Intl, FL, US

Issued at 2341 UTC 19 Jan 2019
Updated at 2343 UTC 19 Jan 2019
Potential Impact None Slight Moderate High
Time<<20/12Z 20/13Z 20/14Z 20/15Z 20/16Z 20/17Z 20/18Z 20/19Z 20/20Z 20/21Z 20/22Z 20/23Z 21/00Z>>
Type PRVL PRVL PRVL PRVL PRVL PRVL PRVL PRVL PRVL PRVL PRVL PRVL PRVL
VIS >6 >6 >6 >6 >6 >6 >6 >6 >6 >6 >6 >6 >6
CIG 150 150 150 50 50 50 30 30 30 30 30 30 30
Cover BKN BKN BKN OVC OVC OVC BKN BKN BKN BKN BKN BKN BKN
FltCat VFR VFR VFR VFR VFR VFR MVFR MVFR MVFR MVFR MVFR MVFR MVFR
WX VCSH VCSH VCSH VCSH VCSH VCSH VCSH VCSH VCSH VCSH VCSH VCSH VCSH
WDir 210 210 210 260 260 260 300 300 300 300 300 300 300
WSpd 8 8 8 10 10 10 11 11 11 11 11 11 11
WGst -- -- -- -- -- -- -- -- -- -- -- -- --
Raw TAF
KMIA 192341Z 2000/2106 16010KT P6SM SCT035 SCT200
  FM201100 21008KT P6SM VCSH SCT035 BKN150
  FM201500 26010KT P6SM VCSH SCT035 OVC050
  FM201800 30011KT P6SM VCSH BKN030


METAR Board
Radar Display
Forecast Discussion
For situational awareness. Not to be used for flight planning purposes.